createdAt,value
2022-10-17T00:00:59.286Z,99.96
2022-10-17T00:03:26.318Z,100.00
2022-10-17T00:05:53.488Z,100.00
2022-10-17T00:08:20.765Z,100.00
2022-10-17T00:11:05.237Z,100.00
2022-10-17T00:16:05.859Z,100.00
2022-10-17T00:18:32.959Z,100.00
2022-10-17T00:20:59.993Z,100.00
2022-10-17T00:23:30.545Z,100.00
2022-10-17T00:26:05.874Z,100.00
2022-10-17T00:28:33.444Z,100.00
2022-10-17T00:31:04.693Z,100.00
2022-10-17T00:33:33.661Z,100.00
2022-10-17T00:36:14.251Z,100.00
2022-10-17T00:38:43.776Z,100.00
2022-10-17T00:41:14.337Z,100.00
2022-10-17T00:44:04.440Z,100.00
2022-10-17T00:46:36.800Z,100.00
2022-10-17T00:49:09.850Z,100.00
2022-10-17T00:51:56.279Z,100.00
2022-10-17T00:54:39.548Z,100.00
2022-10-17T00:57:07.211Z,100.00
2022-10-17T00:59:36.048Z,100.00
2022-10-17T01:02:13.620Z,100.00
2022-10-17T01:04:44.021Z,100.00
2022-10-17T01:07:11.347Z,100.00
2022-10-17T01:09:39.875Z,100.00
2022-10-17T01:12:33.266Z,100.00
2022-10-17T01:15:43.285Z,100.00
2022-10-17T01:18:38.663Z,100.00
2022-10-17T01:21:31.414Z,100.00
2022-10-17T01:24:31.258Z,100.00
2022-10-17T01:27:18.184Z,100.00
2022-10-17T01:30:10.860Z,100.00
2022-10-17T01:32:45.659Z,100.00
2022-10-17T01:35:51.314Z,100.00
2022-10-17T01:38:40.291Z,100.00
2022-10-17T01:41:41.371Z,100.00
2022-10-17T01:44:34.814Z,100.00
2022-10-17T01:47:10.817Z,100.00
2022-10-17T01:49:40.934Z,100.00
2022-10-17T01:52:17.229Z,100.00
2022-10-17T01:54:52.667Z,100.00
2022-10-17T01:57:32.113Z,100.00
2022-10-17T02:00:00.701Z,100.00
2022-10-17T02:02:28.366Z,100.00
2022-10-17T02:04:57.394Z,100.00
2022-10-17T02:07:24.437Z,100.00
2022-10-17T02:09:51.453Z,100.00
2022-10-17T02:12:39.867Z,100.00
2022-10-17T02:15:12.869Z,100.00
2022-10-17T02:18:15.885Z,100.00
2022-10-17T02:20:58.466Z,100.00
2022-10-17T02:24:04.333Z,100.00
2022-10-17T02:26:41.050Z,100.00
2022-10-17T02:29:23.157Z,100.00
2022-10-17T02:32:11.898Z,100.00
2022-10-17T02:34:46.778Z,100.00
2022-10-17T02:37:18.434Z,100.00
2022-10-17T02:39:47.261Z,100.00
2022-10-17T02:42:15.671Z,100.00
2022-10-17T02:44:45.630Z,100.00
2022-10-17T02:47:59.776Z,100.00
2022-10-17T02:51:09.713Z,100.00
2022-10-17T02:53:55.569Z,100.00
2022-10-17T02:56:24.497Z,100.00
2022-10-17T02:58:57.406Z,100.00
2022-10-17T03:01:25.205Z,100.00
2022-10-17T03:04:03.947Z,100.00
2022-10-17T03:06:30.877Z,100.00
2022-10-17T03:08:57.786Z,100.00
2022-10-17T03:11:24.718Z,100.00
2022-10-17T03:13:51.644Z,100.00
2022-10-17T03:16:18.602Z,100.00
2022-10-17T03:18:48.020Z,100.00
2022-10-17T03:21:17.062Z,100.00
2022-10-17T03:23:44.099Z,100.00
2022-10-17T03:26:11.253Z,100.00
2022-10-17T03:28:38.446Z,100.00
2022-10-17T03:31:16.950Z,100.00
2022-10-17T03:33:43.891Z,100.00
2022-10-17T03:36:14.772Z,100.00
2022-10-17T03:38:42.569Z,100.00
2022-10-17T03:41:09.812Z,100.00
2022-10-17T03:43:37.392Z,100.00
2022-10-17T03:46:04.762Z,100.00
2022-10-17T03:48:33.225Z,100.00
2022-10-17T03:51:07.176Z,100.00
2022-10-17T03:53:35.149Z,100.00
2022-10-17T03:56:23.250Z,100.00
2022-10-17T03:58:50.291Z,100.00
2022-10-17T04:01:19.483Z,100.00
2022-10-17T04:03:54.760Z,100.00
2022-10-17T04:06:22.754Z,100.00
2022-10-17T04:08:50.389Z,100.00
2022-10-17T04:11:20.861Z,100.00
2022-10-17T04:13:52.306Z,100.00
2022-10-17T04:16:19.223Z,100.00
2022-10-17T04:18:46.323Z,100.00
2022-10-17T04:21:13.790Z,100.00
2022-10-17T04:23:40.755Z,100.00
2022-10-17T04:26:07.829Z,100.00
2022-10-17T04:28:35.921Z,100.00
2022-10-17T04:31:09.826Z,100.00
2022-10-17T04:33:36.748Z,100.00
2022-10-17T04:36:07.800Z,100.00
2022-10-17T04:38:35.142Z,100.00
2022-10-17T04:41:06.511Z,100.00
2022-10-17T04:43:36.474Z,100.00
2022-10-17T04:46:10.106Z,100.00
2022-10-17T04:48:37.481Z,100.00
2022-10-17T04:51:08.913Z,100.00
2022-10-17T04:53:38.627Z,100.00
2022-10-17T04:56:18.151Z,100.00
2022-10-17T04:58:46.187Z,100.00
2022-10-17T05:01:17.475Z,100.00
2022-10-17T05:03:44.945Z,100.00
2022-10-17T05:06:19.127Z,100.00
2022-10-17T05:08:46.994Z,100.00
2022-10-17T05:11:36.792Z,100.00
2022-10-17T05:14:03.791Z,100.00
2022-10-17T05:16:31.011Z,100.00
2022-10-17T05:18:59.359Z,100.00
2022-10-17T05:21:28.793Z,100.00
2022-10-17T05:23:55.839Z,100.00
2022-10-17T05:26:23.624Z,100.00
2022-10-17T05:28:52.563Z,100.00
2022-10-17T05:31:19.666Z,100.00
2022-10-17T05:33:46.673Z,100.00
2022-10-17T05:36:13.753Z,100.00
2022-10-17T05:38:40.751Z,100.00
2022-10-17T05:41:07.762Z,100.00
2022-10-17T05:43:35.251Z,99.18
2022-10-17T05:46:08.219Z,99.79
2022-10-17T05:48:35.430Z,100.00
2022-10-17T05:51:06.189Z,100.00
2022-10-17T05:53:36.473Z,100.00
2022-10-17T05:56:07.030Z,99.05
2022-10-17T05:58:49.787Z,98.48
2022-10-17T06:01:17.907Z,97.11
2022-10-17T06:03:45.038Z,95.81
2022-10-17T06:06:14.026Z,94.73
2022-10-17T06:08:41.109Z,94.03
2022-10-17T06:11:10.163Z,93.33
2022-10-17T06:13:38.815Z,92.33
2022-10-17T06:16:06.617Z,91.75
2022-10-17T06:18:33.769Z,90.16
2022-10-17T06:21:10.283Z,89.65
2022-10-17T06:23:37.886Z,89.41
2022-10-17T06:26:07.685Z,88.23
2022-10-17T06:28:36.279Z,87.53
2022-10-17T06:31:08.842Z,86.55
2022-10-17T06:33:36.240Z,86.22
2022-10-17T06:36:04.942Z,85.47
2022-10-17T06:38:32.260Z,83.48
2022-10-17T06:41:15.432Z,79.15
2022-10-17T06:43:46.405Z,71.23
2022-10-17T06:46:16.827Z,66.01
2022-10-17T06:48:44.099Z,62.10
2022-10-17T06:51:11.911Z,59.56
2022-10-17T06:53:40.842Z,58.27
2022-10-17T06:56:10.308Z,57.52
2022-10-17T06:58:40.920Z,56.84
2022-10-17T07:01:13.660Z,55.05
2022-10-17T07:03:41.368Z,53.80
2022-10-17T07:06:10.847Z,53.07
2022-10-17T07:08:38.187Z,51.83
2022-10-17T07:11:17.030Z,51.02
2022-10-17T07:13:44.334Z,50.44
2022-10-17T07:16:12.688Z,49.89
2022-10-17T07:18:40.350Z,50.59
2022-10-17T07:21:08.809Z,50.90
2022-10-17T07:23:37.228Z,49.90
2022-10-17T07:26:09.346Z,50.84
2022-10-17T07:28:38.868Z,50.22
2022-10-17T07:31:13.459Z,51.58
2022-10-17T07:33:41.204Z,52.34
2022-10-17T07:36:08.425Z,52.27
2022-10-17T07:38:37.055Z,52.53
2022-10-17T07:41:07.626Z,52.67
2022-10-17T07:43:36.190Z,53.28
2022-10-17T07:46:05.862Z,52.58
2022-10-17T07:48:32.955Z,51.71
2022-10-17T07:51:04.004Z,51.43
2022-10-17T07:53:30.987Z,51.17
2022-10-17T07:55:58.724Z,51.36
2022-10-17T07:58:25.987Z,50.87
2022-10-17T08:00:53.120Z,51.47
2022-10-17T08:03:20.100Z,50.85
2022-10-17T08:05:47.067Z,51.09
2022-10-17T08:08:14.032Z,51.98
2022-10-17T08:10:40.982Z,50.95
2022-10-17T08:13:07.911Z,51.81
2022-10-17T08:15:38.372Z,52.78
2022-10-17T08:18:05.327Z,53.89
2022-10-17T08:20:32.245Z,54.17
2022-10-17T08:22:59.167Z,52.69
2022-10-17T08:25:26.219Z,51.45
2022-10-17T08:27:53.147Z,48.64
2022-10-17T08:30:20.397Z,48.32
2022-10-17T08:32:47.382Z,48.47
2022-10-17T08:35:14.872Z,46.51
2022-10-17T08:37:41.984Z,46.47
2022-10-17T08:40:21.011Z,46.95
2022-10-17T08:43:21.400Z,46.86
2022-10-17T08:46:00.427Z,46.04
2022-10-17T08:48:31.673Z,45.84
2022-10-17T08:51:11.222Z,44.79
2022-10-17T08:54:14.991Z,45.52
2022-10-17T08:56:50.098Z,45.90
2022-10-17T08:59:29.439Z,45.88
2022-10-17T09:02:18.536Z,45.12
2022-10-17T09:05:09.503Z,45.58
2022-10-17T09:08:17.630Z,45.06
2022-10-17T09:11:12.694Z,44.50
2022-10-17T09:13:50.104Z,44.76
2022-10-17T09:16:37.347Z,44.35
2022-10-17T09:19:34.364Z,45.08
2022-10-17T09:22:12.567Z,43.48
2022-10-17T09:24:52.966Z,44.88
2022-10-17T09:27:46.661Z,44.13
2022-10-17T09:30:50.541Z,44.41
2022-10-17T09:33:35.595Z,45.17
2022-10-17T09:36:20.885Z,44.48
2022-10-17T09:38:58.359Z,44.30
2022-10-17T09:41:48.267Z,42.02
2022-10-17T09:44:22.023Z,41.95
2022-10-17T09:47:30.060Z,43.13
2022-10-17T09:49:57.658Z,42.33
2022-10-17T09:52:34.101Z,43.22
2022-10-17T09:55:45.973Z,42.55
2022-10-17T09:58:13.093Z,42.58
2022-10-17T10:00:48.945Z,41.89
2022-10-17T10:03:25.450Z,42.47
2022-10-17T10:06:06.065Z,42.67
2022-10-17T10:08:58.693Z,41.42
2022-10-17T10:11:58.058Z,41.79
2022-10-17T10:14:39.651Z,42.66
2022-10-17T10:17:34.636Z,41.42
2022-10-17T10:20:06.689Z,42.70
2022-10-17T10:22:33.630Z,42.19
2022-10-17T10:25:17.768Z,42.99
2022-10-17T10:27:46.830Z,42.57
2022-10-17T10:30:27.792Z,42.48
2022-10-17T10:32:57.077Z,42.51
2022-10-17T10:35:37.360Z,43.42
2022-10-17T10:38:17.076Z,42.51
2022-10-17T10:40:54.608Z,42.72
2022-10-17T10:43:38.163Z,42.80
2022-10-17T10:46:16.943Z,43.13
2022-10-17T10:48:53.148Z,42.88
2022-10-17T10:51:47.520Z,43.74
2022-10-17T10:54:31.055Z,43.52
2022-10-17T10:57:03.511Z,43.61
2022-10-17T10:59:48.825Z,42.85
2022-10-17T11:02:40.379Z,43.10
2022-10-17T11:05:20.827Z,43.32
2022-10-17T11:07:52.883Z,43.48
2022-10-17T11:10:35.730Z,43.30
2022-10-17T11:13:31.659Z,44.44
2022-10-17T11:16:44.888Z,45.76
2022-10-17T11:19:51.898Z,45.74
2022-10-17T11:22:47.084Z,44.57
2022-10-17T11:25:28.056Z,44.16
2022-10-17T11:27:55.235Z,44.13
2022-10-17T11:30:27.011Z,44.09
2022-10-17T11:32:59.876Z,44.35
2022-10-17T11:35:40.435Z,45.10
2022-10-17T11:39:11.873Z,45.68
2022-10-17T11:41:59.817Z,45.23
2022-10-17T11:44:39.718Z,45.31
2022-10-17T11:47:48.191Z,45.78
2022-10-17T11:53:32.154Z,46.33
2022-10-17T11:56:00.405Z,47.48
2022-10-17T11:59:00.359Z,47.30
2022-10-17T12:01:48.893Z,46.32
2022-10-17T12:04:49.811Z,47.35
2022-10-17T12:07:37.048Z,48.23
2022-10-17T12:10:43.875Z,49.01
2022-10-17T12:13:29.012Z,48.37
2022-10-17T12:15:58.050Z,49.67
2022-10-17T12:18:29.526Z,50.10
2022-10-17T12:20:58.863Z,50.07
2022-10-17T12:23:31.673Z,51.09
2022-10-17T12:26:05.352Z,50.09
2022-10-17T12:28:44.477Z,50.47
2022-10-17T12:31:17.532Z,50.82
2022-10-17T12:34:02.974Z,50.42
2022-10-17T12:36:29.779Z,51.08
2022-10-17T12:39:02.393Z,50.36
2022-10-17T12:41:41.467Z,50.86
2022-10-17T12:44:14.311Z,51.82
2022-10-17T12:46:47.629Z,51.98
2022-10-17T12:49:53.142Z,51.64
2022-10-17T12:52:29.759Z,51.83
2022-10-17T12:55:14.082Z,51.10
2022-10-17T12:58:02.898Z,51.32
2022-10-17T13:01:18.807Z,51.58
2022-10-17T13:03:50.421Z,51.74
2022-10-17T13:06:29.427Z,52.06
2022-10-17T13:09:07.719Z,52.59
2022-10-17T13:11:37.862Z,53.61
2022-10-17T13:14:15.255Z,54.00
2022-10-17T13:16:57.482Z,54.70
2022-10-17T13:19:30.118Z,54.96
2022-10-17T13:22:06.326Z,54.43
2022-10-17T13:24:41.193Z,54.85
2022-10-17T13:27:34.660Z,54.87
2022-10-17T13:30:23.413Z,54.47
2022-10-17T13:32:52.390Z,55.56
2022-10-17T13:35:58.898Z,55.12
2022-10-17T13:38:28.853Z,55.99
2022-10-17T13:41:01.979Z,56.21
2022-10-17T13:43:33.100Z,56.48
2022-10-17T13:46:25.345Z,56.31
2022-10-17T13:48:52.651Z,56.09
2022-10-17T13:51:20.211Z,56.37
2022-10-17T13:53:47.165Z,56.53
2022-10-17T13:56:28.318Z,57.39
2022-10-17T13:59:23.973Z,57.27
2022-10-17T14:01:52.265Z,57.27
2022-10-17T14:04:20.413Z,57.51
2022-10-17T14:06:49.655Z,57.09
2022-10-17T14:09:26.008Z,57.63
2022-10-17T14:12:16.590Z,57.65
2022-10-17T14:15:09.764Z,58.30
2022-10-17T14:17:38.580Z,58.51
2022-10-17T14:20:43.368Z,58.80
2022-10-17T14:23:21.425Z,58.58
2022-10-17T14:25:43.606Z,58.89
2022-10-17T14:28:14.580Z,59.68
2022-10-17T14:31:02.975Z,59.91
2022-10-17T14:33:33.389Z,59.86
2022-10-17T14:36:02.955Z,59.67
2022-10-17T14:38:30.735Z,59.83
2022-10-17T14:41:41.335Z,60.49
2022-10-17T14:44:08.115Z,60.88
2022-10-17T14:46:36.611Z,60.52
2022-10-17T14:49:19.378Z,61.23
2022-10-17T14:52:26.440Z,61.44
2022-10-17T14:54:53.703Z,62.25
2022-10-17T14:57:50.127Z,62.32
2022-10-17T15:00:19.746Z,62.44
2022-10-17T15:02:48.512Z,62.56
2022-10-17T15:05:16.302Z,62.50
2022-10-17T15:07:43.701Z,63.04
2022-10-17T15:10:33.918Z,62.74
2022-10-17T15:15:52.014Z,63.74
2022-10-17T15:18:19.624Z,63.77
2022-10-17T15:20:46.623Z,64.08
2022-10-17T15:23:13.590Z,64.04
2022-10-17T15:25:40.607Z,64.30
2022-10-17T15:28:08.107Z,64.22
2022-10-17T15:30:36.758Z,64.52
2022-10-17T15:33:04.090Z,64.76
2022-10-17T15:35:31.370Z,64.69
2022-10-17T15:37:58.485Z,65.49
2022-10-17T15:40:29.345Z,65.43
2022-10-17T15:42:57.042Z,65.88
2022-10-17T15:45:24.650Z,65.42
2022-10-17T15:47:56.275Z,66.16
2022-10-17T15:50:23.357Z,66.78
2022-10-17T15:52:51.083Z,66.92
2022-10-17T15:55:18.581Z,65.95
2022-10-17T15:57:47.786Z,66.46
2022-10-17T16:00:19.457Z,67.73
2022-10-17T16:02:47.055Z,68.02
2022-10-17T16:05:25.560Z,68.02
2022-10-17T16:07:53.974Z,68.44
2022-10-17T16:10:23.033Z,68.04
2022-10-17T16:12:50.435Z,68.31
2022-10-17T16:15:23.007Z,68.56
2022-10-17T16:17:55.937Z,68.36
2022-10-17T16:20:25.442Z,68.30
2022-10-17T16:22:59.762Z,68.52
2022-10-17T16:25:29.702Z,68.15
2022-10-17T16:28:00.170Z,68.07
2022-10-17T16:30:29.943Z,68.94
2022-10-17T16:32:57.172Z,68.57
2022-10-17T16:35:33.250Z,68.95
2022-10-17T16:38:04.649Z,68.00
2022-10-17T16:40:31.664Z,69.31
2022-10-17T16:42:58.648Z,69.26
2022-10-17T16:45:25.582Z,69.07
2022-10-17T16:47:53.344Z,68.60
2022-10-17T16:50:20.685Z,69.36
2022-10-17T16:52:47.751Z,69.51
2022-10-17T16:55:14.898Z,69.84
2022-10-17T17:00:17.437Z,70.50
2022-10-17T17:02:47.140Z,70.29
2022-10-17T17:05:14.228Z,70.47
2022-10-17T17:07:41.181Z,70.75
2022-10-17T17:10:08.789Z,69.98
2022-10-17T17:12:36.533Z,70.92
2022-10-17T17:15:04.483Z,70.88
2022-10-17T17:17:49.310Z,71.45
2022-10-17T17:20:17.330Z,71.91
2022-10-17T17:22:44.250Z,72.36
2022-10-17T17:25:11.153Z,71.60
2022-10-17T17:27:38.125Z,71.96
2022-10-17T17:30:05.688Z,72.34
2022-10-17T17:32:33.157Z,71.37
2022-10-17T17:35:00.282Z,72.21
2022-10-17T17:37:27.394Z,72.04
2022-10-17T17:39:54.400Z,72.69
2022-10-17T17:42:21.316Z,71.55
2022-10-17T17:44:49.895Z,71.96
2022-10-17T17:47:16.911Z,72.03
2022-10-17T17:49:43.893Z,72.59
2022-10-17T17:52:10.902Z,73.39
2022-10-17T17:54:40.782Z,73.23
2022-10-17T17:57:08.202Z,73.32
2022-10-17T17:59:35.255Z,73.60
2022-10-17T18:02:02.955Z,73.66
2022-10-17T18:04:30.009Z,73.91
2022-10-17T18:06:56.955Z,74.30
2022-10-17T18:09:24.140Z,74.29
2022-10-17T18:11:51.158Z,74.44
2022-10-17T18:14:19.245Z,75.07
2022-10-17T18:16:46.214Z,74.45
2022-10-17T18:19:13.257Z,75.11
2022-10-17T18:21:40.254Z,75.99
2022-10-17T18:24:07.908Z,75.61
2022-10-17T18:26:35.067Z,75.37
2022-10-17T18:29:02.606Z,75.79
2022-10-17T18:31:32.273Z,75.59
2022-10-17T18:34:02.800Z,75.62
2022-10-17T18:36:31.396Z,76.26
2022-10-17T18:39:00.590Z,76.34
2022-10-17T18:41:28.423Z,76.10
2022-10-17T18:43:56.737Z,75.58
2022-10-17T18:46:30.359Z,75.81
2022-10-17T18:48:57.511Z,75.94
2022-10-17T18:51:26.016Z,76.44
2022-10-17T18:53:56.396Z,76.78
2022-10-17T18:56:24.042Z,76.92
2022-10-17T18:58:51.742Z,77.27
2022-10-17T19:01:22.202Z,76.82
2022-10-17T19:03:51.593Z,76.53
2022-10-17T19:06:22.082Z,76.97
2022-10-17T19:08:49.644Z,77.04
2022-10-17T19:11:22.250Z,76.62
2022-10-17T19:13:50.197Z,77.12
2022-10-17T19:16:21.367Z,77.05
2022-10-17T19:18:54.173Z,77.09
2022-10-17T19:21:22.424Z,77.37
2022-10-17T19:24:02.339Z,77.11
2022-10-17T19:26:33.484Z,76.50
2022-10-17T19:29:00.726Z,76.73
2022-10-17T19:31:31.711Z,76.80
2022-10-17T19:34:00.003Z,77.14
2022-10-17T19:36:33.615Z,77.69
2022-10-17T19:39:04.145Z,77.95
2022-10-17T19:41:31.831Z,77.81
2022-10-17T19:44:00.189Z,77.31
2022-10-17T19:46:29.435Z,77.45
2022-10-17T19:48:56.584Z,78.50
2022-10-17T19:51:25.153Z,77.86
2022-10-17T19:53:54.399Z,78.46
2022-10-17T19:56:23.729Z,77.79
2022-10-17T19:58:51.932Z,78.27
2022-10-17T20:01:32.171Z,78.16
2022-10-17T20:03:59.335Z,77.97
2022-10-17T20:06:26.558Z,78.70
2022-10-17T20:08:54.008Z,77.10
2022-10-17T20:11:27.854Z,78.40
2022-10-17T20:13:56.178Z,79.33
2022-10-17T20:16:27.925Z,78.38
2022-10-17T20:19:10.039Z,79.50
2022-10-17T20:21:39.623Z,79.44
2022-10-17T20:24:09.609Z,79.47
2022-10-17T20:26:38.511Z,80.03
2022-10-17T20:29:12.518Z,80.21
2022-10-17T20:31:41.258Z,80.36
2022-10-17T20:34:11.294Z,80.72
2022-10-17T20:36:38.208Z,79.67
2022-10-17T20:39:07.248Z,80.34
2022-10-17T20:41:34.903Z,80.86
2022-10-17T20:44:02.016Z,80.40
2022-10-17T20:46:36.723Z,80.41
2022-10-17T20:49:06.729Z,80.25
2022-10-17T20:51:35.318Z,80.61
2022-10-17T20:54:03.107Z,80.80
2022-10-17T20:56:33.880Z,80.82
2022-10-17T20:59:04.477Z,80.78
2022-10-17T21:01:34.502Z,81.34
2022-10-17T21:04:21.462Z,81.64
2022-10-17T21:06:51.294Z,82.01
2022-10-17T21:09:18.574Z,82.01
2022-10-17T21:11:45.687Z,81.87
2022-10-17T21:14:12.844Z,82.38
2022-10-17T21:16:41.321Z,81.34
2022-10-17T21:19:10.832Z,81.77
2022-10-17T21:21:41.770Z,81.20
2022-10-17T21:24:14.289Z,82.18
2022-10-17T21:26:43.536Z,82.19
2022-10-17T21:29:13.369Z,81.57
2022-10-17T21:31:44.695Z,82.09
2022-10-17T21:34:17.523Z,82.29
2022-10-17T21:36:45.173Z,82.46
2022-10-17T21:39:13.479Z,82.34
2022-10-17T21:41:41.552Z,82.57
2022-10-17T21:44:14.931Z,82.32
2022-10-17T21:46:42.934Z,82.24
2022-10-17T21:49:12.917Z,82.00
2022-10-17T21:51:40.353Z,83.03
2022-10-17T21:54:08.206Z,82.54
2022-10-17T21:56:36.408Z,81.53
2022-10-17T21:59:04.943Z,82.38
2022-10-17T22:01:36.193Z,81.66
2022-10-17T22:04:06.004Z,81.20
2022-10-17T22:06:40.833Z,80.25
2022-10-17T22:09:26.195Z,80.93
2022-10-17T22:11:56.591Z,80.37
2022-10-17T22:14:27.070Z,81.57
2022-10-17T22:16:54.782Z,81.54
2022-10-17T22:19:25.670Z,81.44
2022-10-17T22:21:53.837Z,81.20
2022-10-17T22:26:53.878Z,82.09
2022-10-17T22:29:21.309Z,81.83
2022-10-17T22:31:48.256Z,80.51
2022-10-17T22:34:17.300Z,79.85
2022-10-17T22:36:44.813Z,81.21
2022-10-17T22:39:11.763Z,81.93
2022-10-17T22:41:38.918Z,82.32
2022-10-17T22:44:06.128Z,82.21
2022-10-17T22:46:33.284Z,81.70
2022-10-17T22:49:00.262Z,81.39
2022-10-17T22:51:27.780Z,82.17
2022-10-17T22:53:54.900Z,82.07
2022-10-17T22:56:22.904Z,82.23
2022-10-17T22:58:50.582Z,81.55
2022-10-17T23:01:22.354Z,81.48
2022-10-17T23:03:50.378Z,81.34
2022-10-17T23:06:18.181Z,81.65
2022-10-17T23:08:45.597Z,80.59
2022-10-17T23:11:13.115Z,80.61
2022-10-17T23:13:41.022Z,80.43
2022-10-17T23:16:09.245Z,80.54
2022-10-17T23:18:38.446Z,80.07
2022-10-17T23:21:06.451Z,78.19
2022-10-17T23:23:33.540Z,79.07
2022-10-17T23:26:13.656Z,79.24
2022-10-17T23:28:41.983Z,79.43
2022-10-17T23:31:19.678Z,79.24
2022-10-17T23:33:48.970Z,78.95
2022-10-17T23:36:20.114Z,78.71
2022-10-17T23:38:48.292Z,77.78
2022-10-17T23:41:16.191Z,76.35
2022-10-17T23:43:44.137Z,77.22
2022-10-17T23:46:11.117Z,76.93
2022-10-17T23:48:39.008Z,75.98
2022-10-17T23:51:07.774Z,75.91
2022-10-17T23:53:36.086Z,76.44
2022-10-17T23:56:03.783Z,76.96
2022-10-17T23:58:31.047Z,76.04
